skip to main content

Salvage Dealers List

Click on any column heading to sort by that column or use the search field below to enter search terms.

Click on a Business Name for more detailed information about that dealer.

Business NamePhonePhysical AddressCityZipDealerIDLicense NumberExpires
AERO AUTO SALES(817) 808-84401930 MICHIGAN AVEDALLAS75216433250576433252015-10-14 00:00:00
AEROBILT MANUFACTURING COMPANY(972) 997-5733834 HERITAGE PARKWAY SALLEN75002541620436541622016-05-09 00:00:00
AEROMARINE ENTERPRISE(832) 279-14216826 CADDO LAKE LANEHOUSTON77083358351016358352016-02-01 00:00:00
AEROPLACE SERVICES INCORPORATED(469) 964-187515 FIELDER RDDENISON75020526470912526472015-09-04 00:00:00
AF1 RACING INC(512) 627-0278699 W SAN ANTONIONEW BRAUNFELS78130506910461506912015-10-30 00:00:00
AF1 RACING INC(830) 626-3966699 W SAN ANTONIONEW BRAUNFELS78130506910461506912015-10-30 00:00:00
AFFORDABLE AUTO REPAIR(940) 458-198711721 MARION RDSANGER76266479290616479292015-09-19 00:00:00
AFFORDABLE AUTOS(281) 615-501724803 BAYWICK DRIVESPRING77389544171012544172016-06-06 00:00:00
AFFORDABLE AUTOS(281) 615-501724803 BAYWICK DRIVESPRING77389544171016544172016-06-06 00:00:00
AFFORDABLE CARS AND SERVICES(832) 630-25705710 JAMES PLACEHOUSTON77085534221012534222016-01-17 00:00:00
AFFORDABLE SALES(281) 987-03005204 NORTHINGTONHOUSTON77039308371016308372016-07-01 00:00:00
AFFORDABLE USED CARS(409) 347-12173730 EAST LUCASBEAUMONT77708438661236438662016-02-02 00:00:00
AFFORDABLES PLUS AUTO SALES(832) 267-34501310 HANCOCKPASADENA77502472390572472392016-05-17 00:00:00
AFFORDABLES PLUS AUTO SALES(832) 267-34501310 HANCOCKPASADENA77502472390576472392016-05-20 00:00:00
AFRICANMIRROR WORLD WIDE(214) 587-52406805 SOUTHGATE DR.SACHSE75048569270576569272016-06-24 00:00:00
AG AUTO SALES(713) 870-0875111 BLUE BELLHOUSTON77037458471012458472015-10-27 00:00:00
AG CARS(281) 435-108210211 ANTELOPE ALLEYMISSOURI CITY77459551150794551152015-09-23 00:00:00
AG MOTORS(713) 884-087217930 SUNSHINE TRACE LANERICHMOND77407480440795480442015-09-20 00:00:00
AG MOTORS(713) 884-087217930 SUNSHINE TRACE LANERICHMOND77407480440796480442015-09-20 00:00:00
AG MOTORS(956) 237-0116201 E GUERRERO STLAREDO78040489392406489392016-02-15 00:00:00
AG PERFORMANCE(832) 483-85294301 DE MILO DRHOUSTON77092568191016568192016-06-04 00:00:00
AGAPE LOVE(713) 683-10402008 D WIRT RDHOUSTON77055354811012354812016-03-29 00:00:00
AGBIMS MOTORS(832) 310-493210919 FONDREN #3122HOUSTON77096573051016573052016-08-13 00:00:00
AGHADE VENTURE AUTO BROKER(512) 803-51691108 DORAS DRPFLUGERVILLE78660392492272392492016-01-20 00:00:00
AGHADE VENTURE AUTO BROKER(512) 803-51691108 DORAS DRPFLUGERVILLE78660392492276392492015-11-07 00:00:00
AGOSTUS MOTOR GROUP LLC(832) 230-44547110 ROMONA BLVD STE 2HOUSTON77086552751012552752015-11-03 00:00:00
AGOSTUS MOTOR GROUP LLC(832) 230-44547110 ROMONA BLVD STE 2HOUSTON77086552751016552752015-11-03 00:00:00
AGREDA AUTO SALES(817) 521-49671416 SILVERSIDE DR 30GRAPEVINE76051557222202557222016-01-15 00:00:00
AGREDA AUTO SALES(817) 521-49671416 SILVERSIDE DR 30GRAPEVINE76051557222206557222016-01-15 00:00:00
AGUILAR AUTO SALE(409) 457-467113019 TELEVISTAHOUSTON77037507651012507652015-11-09 00:00:00
AGUILAR AUTO SALE(409) 457-467113019 TELEVISTAHOUSTON77037507651016507652015-11-09 00:00:00
AGUILAR AUTOSALES(915) 412-233713140 GUITAR DRSAN ELIZARIO79849506360712506362015-12-04 00:00:00
AGUILAR BROS(956) 687-89306824 S MC COLL RDMC ALLEN78503310631082310632015-09-05 00:00:00
AGUILAR BROS(956) 687-89306824 S MC COLL RDMC ALLEN78503310631086310632015-09-05 00:00:00
AGUILAR TRUCK SALES(281) 330-58707926 LOG HOLLOW DRHOUSTON77040569181016569182016-06-18 00:00:00
AGUILAR TRUCK SALES(620) 339-9070216 W. MCFARLANDKERRVILLE78020553641332553642015-10-28 00:00:00
AGUILAR TRUCK SALES(620) 339-9070216 W. MCFARLANDKERRVILLE78020553641336553642015-10-28 00:00:00
AGUILARS AUTO SALES(956) 968-43702800 NORTH WESTGATEWESLACO78596515521082515522016-02-13 00:00:00
AGUILARS AUTO SALES(956) 968-43702800 NORTH WESTGATEWESLACO78596515521086515522016-03-21 00:00:00
AGUIRRE AUTO SALES(832) 620-655710703 SHARPVIEWHOUSTON77072559361012559362016-02-24 00:00:00
AGUSTIN C ARGUELES(214) 515-92701525 PARMA CTIRVING75060398450576398452016-02-15 00:00:00
AGUSTIN CERDA MARTINEZ(214) 793-04062038 S BELTLINE RDDALLAS75253382580575382582016-04-24 00:00:00
AH AUTO SALES(210) 325-5287703 S GEN MCMULLENSAN ANTONIO78237466350152466352016-03-10 00:00:00
AH AUTO SALES(210) 325-5287703 S GEN MCMULLENSAN ANTONIO78237466350156466352016-03-10 00:00:00
AHB AUTOMOBILE DEALER AND TRANSPORTATION SERVICES(469) 245-89151521 HOLLOW OAK DRDESOTO75115537110572537112016-03-04 00:00:00
AHY ENTERPRISES LLC(832) 538-16267006 BELLFORT STHOUSTON77087567931012567932016-07-09 00:00:00
AIDA LUZ ORTIZ(909) 587-92813233 NORWALK AVE #110DALLAS75220555020572555022015-11-19 00:00:00
AIDA LUZ ORTIZ(909) 587-92813233 NORWALK AVE #110DALLAS75220555020576555022015-11-19 00:00:00
AILEEN IMPORTS(832) 526-8483414 BUSH STHOUSTON7706096941012096942015-11-12 00:00:00
AILEEN IMPORTS(832) 526-8483414 BUSH STHOUSTON7706096941016096942016-01-31 00:00:00

Copyright © 2015 Texas Department of Motor Vehicles. All rights reserved. - 4000 Jackson Ave, Austin, TX 78731